Flight Track Log - Related Links

Times and Time Zones

All times are in EDT time to prevent confusion due to time zone crossing. See the THY2335 flight status page for this flight to view local times or setup timezone preferences in your user account.


Time Position Orientation Groundspeed Altitude Reporting Facility
EDT Latitude Longitude Course Direction KTS MPH feet Rate Location/Type
Wed 01:28:15 PM 38.4481 27.2496 25° Northeast  Level Estimated
Wed 01:29:15 PM 38.5173 27.2910 25° Northeast  Level Estimated
Wed 01:30:15 PM 38.5864 27.3324 25° Northeast  Level Estimated
Wed 01:31:15 PM 38.6556 27.3739 25° Northeast  Level Estimated
Wed 01:32:15 PM 38.7247 27.4154 25° Northeast  Level Estimated
Wed 01:33:15 PM 38.7938 27.4571 25° Northeast  Level Estimated
Wed 01:34:15 PM 38.8629 27.4988 25° Northeast  Level Estimated
Wed 01:35:15 PM 38.9320 27.5406 25° Northeast  Level Estimated
Wed 01:36:15 PM 39.0011 27.5825 25° Northeast  Level Estimated
Wed 01:37:15 PM 39.0701 27.6245 25° Northeast  Level Estimated
Wed 01:38:15 PM 39.1392 27.6665 25° Northeast  Level Estimated
Wed 01:39:15 PM 39.2082 27.7087 25° Northeast  Level Estimated
Wed 01:40:15 PM 39.2772 27.7509 25° Northeast  Level Estimated
Wed 01:41:15 PM 39.3462 27.7932 25° Northeast  Level Estimated
Wed 01:42:15 PM 39.4152 27.8356 25° Northeast  Level Estimated
Wed 01:43:15 PM 39.4842 27.8781 25° Northeast  Level Estimated
Wed 01:44:15 PM 39.5531 27.9206 25° Northeast  Level Estimated
Wed 01:45:15 PM 39.6221 27.9633 25° Northeast  Level Estimated
Wed 01:46:15 PM 39.6910 28.0060 26° Northeast  Level Estimated
Wed 01:47:15 PM 39.7599 28.0488 26° Northeast  Level Estimated
Wed 01:48:15 PM 39.8288 28.0917 26° Northeast  Level Estimated
Wed 01:49:15 PM 39.8977 28.1347 26° Northeast  Level Estimated
Wed 01:50:15 PM 39.9665 28.1777 26° Northeast  Level Estimated
Wed 01:51:15 PM 40.0354 28.2209 26° Northeast  Level Estimated
Wed 01:52:15 PM 40.1042 28.2641 26° Northeast  Level Estimated
Wed 01:53:15 PM 40.1730 28.3075 26° Northeast  Level Estimated
Wed 01:54:15 PM 40.2418 28.3509 26° Northeast  Level Estimated
Wed 01:55:15 PM 40.3106 28.3944 26° Northeast  Level Estimated
Wed 01:56:15 PM 40.3793 28.4380 26° Northeast  Level Estimated
Wed 01:57:15 PM 40.4481 28.4817 26° Northeast  Level Estimated
Wed 01:58:15 PM 40.5168 28.5254 26° Northeast  Level Estimated
Wed 01:59:15 PM 40.5855 28.5693 26° Northeast  Level Estimated
Wed 02:00:15 PM 40.6542 28.6133 26° Northeast  Level Estimated
Wed 02:01:15 PM 40.7229 28.6573 26° Northeast  Level Estimated
Wed 02:02:15 PM 40.7915 28.7014 26° Northeast  Level Estimated
Wed 02:03:15 PM 40.8601 28.7457 26° Northeast  Level Estimated
Wed 02:04:15 PM 40.9288 28.7900 26° Northeast  Level Estimated
Wed 02:05:15 PM 40.9974 28.8344 206° Southwest  Level Estimated
Wed 02:06:15 PM 40.9288 28.7900 26° Northeast  Level Estimated
Wed 02:07:15 PM 40.9974 28.8344 206° Southwest  Level Estimated
Wed 02:08:15 PM 40.9288 28.7900 26° Northeast  Level Estimated
Wed 02:09:15 PM 40.9974 28.8344 206° Southwest  Level Estimated
Wed 02:10:15 PM 40.9288 28.7900 26° Northeast  Level Estimated
Wed 02:11:15 PM 40.9974 28.8344 206° Southwest  Level Estimated
Wed 02:12:15 PM 40.9288 28.7900 26° Northeast  Level Estimated
Wed 02:13:15 PM 40.9974 28.8344 206° Southwest  Level Estimated

Login

Don't have an account? Register now (free) for customized features, flight alerts, and more!